createdAt,value
2018-10-18T00:01:33.872Z,12.63
2018-10-18T00:04:02.305Z,13.33
2018-10-18T00:06:30.800Z,12.47
2018-10-18T00:08:59.264Z,11.17
2018-10-18T00:11:27.687Z,11.13
2018-10-18T00:13:56.115Z,11.53
2018-10-18T00:16:24.561Z,10.50
2018-10-18T00:18:52.992Z,10.33
2018-10-18T00:21:21.409Z,9.60
2018-10-18T00:23:49.837Z,10.30
2018-10-18T00:26:18.258Z,10.80
2018-10-18T00:28:46.676Z,12.67
2018-10-18T00:31:15.073Z,14.70
2018-10-18T00:33:43.483Z,13.27
2018-10-18T00:36:12.003Z,13.10
2018-10-18T00:38:40.324Z,12.33
2018-10-18T00:41:08.741Z,12.80
2018-10-18T00:43:37.165Z,11.97
2018-10-18T00:46:05.947Z,11.03
2018-10-18T00:48:34.379Z,13.40
2018-10-18T00:51:02.784Z,11.50
2018-10-18T00:53:31.209Z,11.40
2018-10-18T00:55:59.615Z,10.30
2018-10-18T00:58:28.092Z,9.60
2018-10-18T01:00:56.487Z,11.40
2018-10-18T01:03:24.968Z,10.87
2018-10-18T01:05:53.414Z,10.43
2018-10-18T01:08:21.813Z,10.43
2018-10-18T01:10:50.227Z,10.10
2018-10-18T01:13:18.635Z,9.10
2018-10-18T01:15:47.045Z,9.70
2018-10-18T01:18:15.557Z,9.90
2018-10-18T01:20:43.944Z,10.60
2018-10-18T01:23:12.345Z,8.90
2018-10-18T01:25:40.772Z,10.33
2018-10-18T01:28:09.165Z,8.50
2018-10-18T01:30:37.641Z,10.87
2018-10-18T01:33:06.143Z,12.60
2018-10-18T01:35:34.563Z,10.50
2018-10-18T01:38:02.990Z,10.17
2018-10-18T01:40:31.416Z,8.30
2018-10-18T01:42:59.840Z,8.60
2018-10-18T01:45:28.741Z,9.70
2018-10-18T01:47:57.157Z,8.37
2018-10-18T01:50:25.585Z,10.07
2018-10-18T01:52:54.002Z,10.50
2018-10-18T01:55:22.413Z,11.47
2018-10-18T01:57:50.861Z,11.10
2018-10-18T02:00:19.370Z,10.43
2018-10-18T02:02:47.716Z,11.00
2018-10-18T02:05:16.148Z,11.73
2018-10-18T02:07:44.571Z,10.97
2018-10-18T02:10:13.012Z,11.10
2018-10-18T02:12:41.419Z,12.83
2018-10-18T02:15:10.981Z,13.00
2018-10-18T02:17:39.741Z,11.30
2018-10-18T02:20:09.058Z,11.17
2018-10-18T02:22:37.464Z,10.20
2018-10-18T02:25:06.560Z,10.00
2018-10-18T02:27:34.948Z,8.90
2018-10-18T02:30:03.493Z,9.67
2018-10-18T02:32:31.918Z,9.73
2018-10-18T02:35:00.336Z,9.83
2018-10-18T02:37:28.743Z,8.37
2018-10-18T02:39:57.144Z,9.27
2018-10-18T02:42:25.608Z,9.83
2018-10-18T02:44:54.010Z,9.90
2018-10-18T02:47:22.449Z,11.37
2018-10-18T02:49:50.853Z,10.77
2018-10-18T02:52:19.288Z,11.10
2018-10-18T02:54:47.693Z,11.00
2018-10-18T02:57:16.127Z,11.17
2018-10-18T02:59:44.540Z,9.00
2018-10-18T03:02:12.961Z,9.73
2018-10-18T03:04:41.373Z,8.60
2018-10-18T03:07:09.804Z,8.80
2018-10-18T03:09:38.233Z,8.27
2018-10-18T03:12:06.772Z,8.40
2018-10-18T03:14:35.088Z,10.30
2018-10-18T03:17:03.524Z,11.40
2018-10-18T03:19:31.928Z,8.77
2018-10-18T03:22:00.340Z,12.30
2018-10-18T03:24:28.740Z,10.20
2018-10-18T03:26:57.160Z,9.27
2018-10-18T03:29:25.564Z,8.50
2018-10-18T03:31:53.992Z,7.30
2018-10-18T03:34:22.385Z,7.23
2018-10-18T03:36:50.792Z,7.40
2018-10-18T03:39:19.216Z,8.73
2018-10-18T03:41:47.604Z,8.50
2018-10-18T03:44:16.012Z,8.37
2018-10-18T03:50:12.894Z,8.23
2018-10-18T03:58:47.827Z,11.17
2018-10-18T04:01:16.257Z,12.90
2018-10-18T04:03:44.684Z,11.03
2018-10-18T04:06:13.474Z,10.10
2018-10-18T04:08:41.788Z,9.60
2018-10-18T04:11:10.219Z,10.20
2018-10-18T04:13:38.716Z,7.60
2018-10-18T04:16:07.148Z,8.00
2018-10-18T04:18:35.710Z,10.20
2018-10-18T04:21:04.131Z,9.37
2018-10-18T04:23:33.709Z,9.90
2018-10-18T04:26:03.083Z,10.77
2018-10-18T04:28:32.216Z,9.47
2018-10-18T04:31:01.499Z,9.87
2018-10-18T04:33:29.920Z,9.60
2018-10-18T04:35:58.364Z,10.20
2018-10-18T04:38:26.801Z,11.17
2018-10-18T04:40:55.231Z,8.53
2018-10-18T04:43:23.636Z,8.70
2018-10-18T04:45:52.074Z,8.40
2018-10-18T04:48:20.538Z,6.77
2018-10-18T04:50:48.923Z,6.50
2018-10-18T04:53:17.332Z,6.87
2018-10-18T04:55:45.752Z,8.53
2018-10-18T04:58:14.164Z,9.00
2018-10-18T05:00:42.604Z,7.50
2018-10-18T05:03:11.018Z,11.50
2018-10-18T05:05:51.002Z,11.07
2018-10-18T05:08:20.078Z,9.73
2018-10-18T05:10:48.631Z,9.23
2018-10-18T05:13:17.142Z,9.90
2018-10-18T05:15:45.642Z,9.83
2018-10-18T05:18:14.066Z,8.40
2018-10-18T05:20:42.479Z,8.07
2018-10-18T05:23:10.947Z,7.33
2018-10-18T05:25:39.557Z,6.97
2018-10-18T05:28:07.956Z,8.30
2018-10-18T05:30:36.379Z,8.23
2018-10-18T05:33:05.180Z,8.27
2018-10-18T05:35:33.624Z,7.93
2018-10-18T05:38:02.057Z,8.00
2018-10-18T05:40:30.507Z,8.43
2018-10-18T05:42:58.939Z,7.43
2018-10-18T05:45:27.380Z,9.37
2018-10-18T05:47:55.793Z,8.60
2018-10-18T05:50:24.228Z,9.10
2018-10-18T05:52:52.670Z,8.40
2018-10-18T05:55:21.080Z,7.87
2018-10-18T05:57:49.535Z,6.60
2018-10-18T06:00:18.924Z,7.17
2018-10-18T06:02:47.728Z,6.90
2018-10-18T06:05:17.004Z,7.47
2018-10-18T06:07:45.708Z,6.10
2018-10-18T06:10:26.165Z,6.20
2018-10-18T06:12:54.632Z,7.80
2018-10-18T06:15:23.431Z,9.30
2018-10-18T06:17:51.876Z,8.23
2018-10-18T06:20:21.004Z,7.63
2018-10-18T06:22:49.477Z,8.80
2018-10-18T06:25:18.009Z,10.40
2018-10-18T06:27:46.382Z,10.33
2018-10-18T06:30:16.064Z,9.43
2018-10-18T06:32:44.531Z,9.37
2018-10-18T06:35:14.333Z,8.97
2018-10-18T06:37:42.691Z,9.63
2018-10-18T06:40:13.371Z,9.33
2018-10-18T06:42:42.172Z,8.60
2018-10-18T06:45:14.039Z,8.17
2018-10-18T06:47:43.155Z,7.17
2018-10-18T06:50:13.635Z,7.90
2018-10-18T06:52:42.076Z,7.23
2018-10-18T06:55:10.601Z,8.33
2018-10-18T06:57:39.908Z,8.00
2018-10-18T07:00:14.633Z,8.23
2018-10-18T07:02:43.580Z,7.80
2018-10-18T07:05:13.158Z,9.13
2018-10-18T07:07:42.027Z,8.53
2018-10-18T07:10:10.497Z,8.27
2018-10-18T07:12:39.401Z,8.50
2018-10-18T07:15:09.137Z,7.27
2018-10-18T07:17:38.614Z,7.70
2018-10-18T07:20:07.554Z,8.17
2018-10-18T07:22:36.504Z,7.10
2018-10-18T07:25:06.225Z,7.30
2018-10-18T07:27:34.668Z,7.77
2018-10-18T07:30:03.165Z,7.43
2018-10-18T07:32:31.576Z,7.43
2018-10-18T07:35:00.109Z,7.30
2018-10-18T07:37:28.464Z,7.80
2018-10-18T07:39:56.879Z,8.17
2018-10-18T07:42:25.260Z,7.93
2018-10-18T07:44:53.684Z,8.20
2018-10-18T07:47:22.067Z,8.50
2018-10-18T07:49:50.474Z,9.07
2018-10-18T07:52:18.877Z,10.10
2018-10-18T07:54:47.307Z,9.07
2018-10-18T07:57:15.696Z,9.27
2018-10-18T07:59:44.131Z,9.33
2018-10-18T08:02:12.528Z,8.60
2018-10-18T08:04:40.943Z,8.33
2018-10-18T08:07:09.367Z,9.20
2018-10-18T08:09:37.859Z,10.10
2018-10-18T08:12:06.289Z,9.07
2018-10-18T08:14:34.748Z,9.43
2018-10-18T08:17:03.356Z,7.90
2018-10-18T08:19:31.715Z,9.67
2018-10-18T08:22:00.139Z,8.80
2018-10-18T08:24:28.553Z,8.93
2018-10-18T08:26:56.972Z,9.77
2018-10-18T08:29:25.387Z,10.10
2018-10-18T08:31:53.862Z,9.47
2018-10-18T08:34:22.248Z,9.73
2018-10-18T08:36:50.685Z,8.90
2018-10-18T08:39:19.100Z,8.77
2018-10-18T08:41:47.539Z,9.87
2018-10-18T08:44:16.000Z,8.50
2018-10-18T08:46:44.439Z,9.43
2018-10-18T08:49:12.956Z,9.10
2018-10-18T08:51:41.315Z,9.50
2018-10-18T08:54:09.740Z,8.93
2018-10-18T08:56:38.170Z,8.90
2018-10-18T08:59:06.650Z,10.77
2018-10-18T09:01:35.068Z,10.10
2018-10-18T09:04:03.493Z,11.23
2018-10-18T09:06:32.038Z,11.30
2018-10-18T09:09:00.513Z,12.00
2018-10-18T09:11:28.984Z,10.90
2018-10-18T09:13:57.411Z,12.53
2018-10-18T09:16:25.844Z,11.60
2018-10-18T09:18:54.282Z,15.60
2018-10-18T09:21:22.679Z,16.03
2018-10-18T09:23:51.104Z,16.33
2018-10-18T09:26:19.596Z,15.67
2018-10-18T09:28:48.271Z,17.20
2018-10-18T09:31:16.775Z,15.17
2018-10-18T09:33:45.140Z,17.57
2018-10-18T09:36:13.568Z,18.40
2018-10-18T09:38:41.973Z,18.80
2018-10-18T09:41:10.424Z,20.03
2018-10-18T09:43:38.820Z,19.23
2018-10-18T09:46:07.284Z,20.73
2018-10-18T09:48:35.928Z,17.43
2018-10-18T09:51:04.410Z,19.33
2018-10-18T09:53:32.808Z,16.70
2018-10-18T09:56:01.304Z,20.90
2018-10-18T09:58:29.659Z,18.77
2018-10-18T10:01:03.355Z,19.27
2018-10-18T10:03:31.740Z,17.57
2018-10-18T10:06:00.151Z,19.60
2018-10-18T10:08:28.580Z,19.07
2018-10-18T10:10:56.987Z,19.63
2018-10-18T10:13:25.575Z,18.60
2018-10-18T10:15:53.832Z,18.77
2018-10-18T10:18:22.343Z,19.17
2018-10-18T10:20:50.667Z,20.00
2018-10-18T10:23:19.085Z,19.03
2018-10-18T10:25:47.500Z,18.57
2018-10-18T10:28:15.964Z,18.43
2018-10-18T10:30:44.357Z,18.20
2018-10-18T10:33:12.813Z,18.80
2018-10-18T10:35:41.281Z,19.33
2018-10-18T10:38:09.652Z,20.83
2018-10-18T10:40:38.046Z,18.30
2018-10-18T10:43:06.588Z,18.67
2018-10-18T10:45:35.032Z,18.47
2018-10-18T10:48:03.403Z,17.50
2018-10-18T10:50:31.807Z,16.53
2018-10-18T10:53:00.223Z,17.93
2018-10-18T10:55:28.649Z,17.77
2018-10-18T10:57:57.065Z,17.43
2018-10-18T11:01:06.492Z,17.67
2018-10-18T11:03:34.986Z,15.87
2018-10-18T11:06:03.454Z,18.00
2018-10-18T11:08:31.892Z,19.70
2018-10-18T11:11:00.392Z,20.20
2018-10-18T11:13:29.921Z,19.03
2018-10-18T11:15:59.592Z,19.70
2018-10-18T11:18:28.062Z,17.50
2018-10-18T11:20:56.482Z,20.17
2018-10-18T11:23:24.904Z,13.73
2018-10-18T11:25:53.391Z,13.67
2018-10-18T11:28:21.800Z,14.20
2018-10-18T11:30:50.226Z,13.63
2018-10-18T11:33:18.732Z,10.90
2018-10-18T11:35:47.084Z,13.13
2018-10-18T11:38:15.780Z,13.37
2018-10-18T11:40:44.213Z,14.67
2018-10-18T11:43:12.909Z,15.57
2018-10-18T11:45:41.348Z,17.57
2018-10-18T11:48:11.953Z,14.70
2018-10-18T11:50:40.648Z,15.20
2018-10-18T11:53:09.051Z,13.73
2018-10-18T11:55:37.527Z,14.13
2018-10-18T11:58:06.560Z,13.83
2018-10-18T12:00:35.000Z,14.60
2018-10-18T12:03:03.432Z,13.43
2018-10-18T12:05:31.857Z,15.37
2018-10-18T12:08:00.313Z,17.17
2018-10-18T12:10:28.760Z,17.17
2018-10-18T12:12:57.171Z,15.40
2018-10-18T12:15:25.625Z,13.40
2018-10-18T12:17:54.055Z,10.83
2018-10-18T12:20:22.506Z,13.73
2018-10-18T12:22:50.932Z,15.47
2018-10-18T12:25:19.364Z,12.43
2018-10-18T12:27:47.779Z,16.30
2018-10-18T12:30:16.436Z,13.90
2018-10-18T12:32:44.858Z,14.00
2018-10-18T12:35:13.442Z,14.50
2018-10-18T12:37:41.745Z,13.43
2018-10-18T12:40:10.407Z,14.50
2018-10-18T12:42:40.599Z,16.20
2018-10-18T12:45:10.196Z,15.63
2018-10-18T12:47:38.700Z,12.87
2018-10-18T12:50:07.313Z,13.40
2018-10-18T12:52:35.764Z,14.57
2018-10-18T12:55:04.277Z,13.93
2018-10-18T12:57:32.708Z,12.60
2018-10-18T13:00:01.218Z,14.77
2018-10-18T13:02:29.660Z,12.17
2018-10-18T13:04:58.076Z,14.03
2018-10-18T13:07:26.508Z,13.50
2018-10-18T13:09:54.949Z,15.50
2018-10-18T13:12:23.589Z,15.20
2018-10-18T13:14:51.812Z,14.57
2018-10-18T13:17:20.249Z,13.70
2018-10-18T13:19:48.652Z,15.30
2018-10-18T13:22:17.093Z,12.93
2018-10-18T13:24:45.516Z,15.23
2018-10-18T13:27:13.977Z,15.23
2018-10-18T13:29:42.391Z,15.40
2018-10-18T13:32:10.918Z,18.80
2018-10-18T13:34:39.268Z,19.17
2018-10-18T13:37:07.762Z,16.70
2018-10-18T13:39:36.215Z,17.83
2018-10-18T13:42:05.139Z,17.40
2018-10-18T13:44:33.503Z,17.10
2018-10-18T13:47:01.956Z,16.87
2018-10-18T13:49:30.363Z,19.90
2018-10-18T13:51:58.812Z,18.10
2018-10-18T13:54:27.244Z,19.50
2018-10-18T13:56:55.768Z,20.90
2018-10-18T13:59:35.460Z,19.07
2018-10-18T14:02:03.932Z,21.10
2018-10-18T14:04:32.328Z,21.30
2018-10-18T14:07:00.767Z,23.57
2018-10-18T14:09:29.180Z,22.67
2018-10-18T14:11:57.596Z,21.47
2018-10-18T14:14:26.019Z,21.90
2018-10-18T14:16:54.471Z,21.70
2018-10-18T14:19:22.942Z,22.83
2018-10-18T14:21:51.398Z,21.10
2018-10-18T14:24:19.856Z,23.43
2018-10-18T14:26:48.264Z,25.03
2018-10-18T14:29:16.715Z,24.40
2018-10-18T14:31:45.124Z,22.67
2018-10-18T14:34:13.538Z,24.57
2018-10-18T14:36:41.936Z,23.53
2018-10-18T14:39:10.826Z,21.00
2018-10-18T14:41:39.133Z,23.80
2018-10-18T14:44:07.834Z,24.23
2018-10-18T14:46:36.213Z,21.90
2018-10-18T14:49:04.884Z,23.67
2018-10-18T14:51:33.288Z,24.10
2018-10-18T14:54:01.764Z,23.67
2018-10-18T14:56:30.197Z,22.80
2018-10-18T14:58:58.781Z,23.23
2018-10-18T15:01:27.220Z,23.53
2018-10-18T15:03:55.635Z,23.50
2018-10-18T15:06:24.035Z,23.00
2018-10-18T15:08:52.468Z,24.77
2018-10-18T15:11:20.889Z,22.57
2018-10-18T15:13:49.312Z,23.23
2018-10-18T15:16:17.707Z,23.53
2018-10-18T15:18:46.120Z,25.83
2018-10-18T15:21:14.535Z,23.13
2018-10-18T15:23:42.931Z,22.80
2018-10-18T15:26:11.450Z,25.93
2018-10-18T15:28:39.778Z,23.53
2018-10-18T15:31:08.200Z,23.07
2018-10-18T15:33:36.604Z,23.87
2018-10-18T15:36:05.151Z,22.00
2018-10-18T15:38:33.679Z,24.67
2018-10-18T15:41:02.018Z,23.50
2018-10-18T15:43:30.408Z,22.37
2018-10-18T15:45:58.864Z,23.60
2018-10-18T15:48:27.305Z,22.43
2018-10-18T15:50:55.839Z,21.83
2018-10-18T15:53:24.260Z,21.43
2018-10-18T15:55:52.680Z,21.90
2018-10-18T15:58:21.076Z,21.00
2018-10-18T16:00:49.487Z,21.03
2018-10-18T16:03:17.947Z,23.00
2018-10-18T16:05:46.355Z,24.20
2018-10-18T16:08:14.764Z,23.77
2018-10-18T16:10:43.258Z,23.97
2018-10-18T16:13:11.659Z,27.43
2018-10-18T16:15:40.096Z,26.33
2018-10-18T16:18:08.492Z,24.33
2018-10-18T16:20:36.909Z,25.60
2018-10-18T16:23:05.474Z,25.00
2018-10-18T16:25:33.876Z,23.70
2018-10-18T16:28:02.271Z,25.07
2018-10-18T16:30:30.704Z,25.07
2018-10-18T16:32:59.096Z,25.97
2018-10-18T16:35:27.528Z,25.57
2018-10-18T16:37:55.964Z,26.47
2018-10-18T16:40:24.400Z,25.73
2018-10-18T16:42:52.831Z,23.50
2018-10-18T16:45:21.240Z,23.63
2018-10-18T16:47:49.758Z,25.27
2018-10-18T16:50:18.123Z,25.83
2018-10-18T16:52:46.540Z,26.20
2018-10-18T16:55:14.964Z,24.87
2018-10-18T16:57:43.408Z,24.23
2018-10-18T17:00:12.328Z,26.33
2018-10-18T17:02:40.668Z,23.23
2018-10-18T17:05:09.125Z,26.37
2018-10-18T17:07:37.556Z,22.77
2018-10-18T17:10:06.435Z,24.53
2018-10-18T17:12:34.845Z,24.10
2018-10-18T17:15:03.400Z,22.43
2018-10-18T17:17:31.836Z,21.93
2018-10-18T17:20:00.276Z,21.83
2018-10-18T17:22:28.736Z,20.70
2018-10-18T17:24:57.151Z,20.10
2018-10-18T17:27:25.790Z,17.37
2018-10-18T17:29:54.220Z,18.43
2018-10-18T17:32:22.676Z,18.53
2018-10-18T17:34:51.937Z,19.10
2018-10-18T17:37:20.387Z,19.30
2018-10-18T17:39:48.815Z,21.23
2018-10-18T17:42:17.348Z,22.50
2018-10-18T17:44:45.684Z,21.07
2018-10-18T17:47:14.242Z,19.10
2018-10-18T17:49:42.604Z,18.13
2018-10-18T17:52:11.095Z,19.33
2018-10-18T17:54:39.481Z,18.60
2018-10-18T17:57:07.933Z,16.37
2018-10-18T17:59:36.433Z,17.40
2018-10-18T18:02:05.066Z,16.97
2018-10-18T18:04:33.513Z,18.10
2018-10-18T18:07:02.012Z,20.53
2018-10-18T18:09:30.389Z,16.13
2018-10-18T18:11:58.812Z,18.20
2018-10-18T18:14:27.272Z,20.97
2018-10-18T18:16:55.672Z,19.90
2018-10-18T18:19:24.111Z,18.90
2018-10-18T18:21:52.554Z,19.10
2018-10-18T18:24:20.955Z,18.60
2018-10-18T20:07:26.411Z,14.47
2018-10-18T20:09:55.678Z,14.57
2018-10-18T20:12:27.300Z,16.00
2018-10-18T20:14:59.757Z,13.73
2018-10-18T20:17:28.192Z,17.60
2018-10-18T20:19:56.683Z,18.70
2018-10-18T20:22:25.164Z,18.67
2018-10-18T20:24:53.693Z,17.83
2018-10-18T20:27:22.228Z,19.57
2018-10-18T20:29:50.673Z,18.43
2018-10-18T20:32:19.285Z,16.70
2018-10-18T20:34:47.790Z,15.43
2018-10-18T20:37:16.282Z,17.20
2018-10-18T20:39:44.751Z,15.20
2018-10-18T20:42:13.227Z,15.00
2018-10-18T20:44:41.667Z,13.40
2018-10-18T20:47:10.172Z,15.10
2018-10-18T20:49:38.604Z,14.40
2018-10-18T20:52:07.052Z,15.17
2018-10-18T20:54:35.491Z,16.67
2018-10-18T20:57:04.066Z,14.53
2018-10-18T20:59:32.428Z,14.27
2018-10-18T21:02:01.116Z,13.67
2018-10-18T21:04:29.548Z,12.50
2018-10-18T21:06:58.052Z,12.27
2018-10-18T21:09:26.472Z,13.47
2018-10-18T21:11:54.938Z,13.20
2018-10-18T21:14:23.383Z,14.80
2018-10-18T21:16:51.897Z,12.83
2018-10-18T21:19:20.528Z,12.27
2018-10-18T21:21:49.001Z,13.67
2018-10-18T21:24:17.648Z,13.17
2018-10-18T21:26:46.097Z,13.50
2018-10-18T21:29:14.591Z,12.63
2018-10-18T21:31:43.020Z,11.57
2018-10-18T21:34:11.522Z,9.83
2018-10-18T21:36:39.912Z,9.97
2018-10-18T21:39:08.483Z,10.10
2018-10-18T21:41:36.892Z,9.43
2018-10-18T21:44:05.627Z,9.07
2018-10-18T21:46:34.098Z,10.73
2018-10-18T21:49:04.140Z,9.77
2018-10-18T21:51:32.620Z,11.37
2018-10-18T21:54:01.085Z,11.30
2018-10-18T21:56:31.666Z,10.20
2018-10-18T21:59:00.527Z,11.40
2018-10-18T22:01:29.548Z,10.30
2018-10-18T22:03:58.043Z,9.33
2018-10-18T22:06:26.489Z,8.70
2018-10-18T22:08:54.936Z,11.00
2018-10-18T22:11:23.396Z,8.10
2018-10-18T22:13:51.836Z,9.40
2018-10-18T22:16:20.243Z,8.20
2018-10-18T22:18:48.688Z,9.80
2018-10-18T22:21:17.104Z,7.30
2018-10-18T22:23:45.528Z,9.20
2018-10-18T22:26:13.948Z,9.90
2018-10-18T22:28:42.397Z,10.50
2018-10-18T22:31:10.839Z,11.23
2018-10-18T22:33:39.397Z,10.30
2018-10-18T22:36:07.809Z,9.37
2018-10-18T22:38:36.238Z,9.57
2018-10-18T22:41:05.859Z,9.50
2018-10-18T22:43:34.328Z,11.50
2018-10-18T22:46:02.748Z,9.37
2018-10-18T22:48:31.851Z,9.30
2018-10-18T22:51:00.438Z,9.63
2018-10-18T22:53:29.122Z,9.70
2018-10-18T22:55:57.552Z,10.40
2018-10-18T22:58:25.992Z,11.20
2018-10-18T23:00:54.479Z,10.03
2018-10-18T23:03:22.884Z,8.93
2018-10-18T23:05:51.307Z,11.33
2018-10-18T23:08:19.769Z,11.63
2018-10-18T23:10:48.228Z,10.73
2018-10-18T23:13:16.662Z,11.90
2018-10-18T23:15:45.108Z,12.27
2018-10-18T23:18:13.534Z,13.70
2018-10-18T23:20:42.055Z,13.27
2018-10-18T23:23:11.141Z,11.80
2018-10-18T23:25:40.024Z,10.43
2018-10-18T23:28:08.500Z,11.57
2018-10-18T23:30:36.952Z,11.47
2018-10-18T23:33:05.503Z,9.33
2018-10-18T23:35:33.915Z,13.73
2018-10-18T23:38:02.332Z,13.57
2018-10-18T23:40:30.769Z,10.20
2018-10-18T23:42:59.176Z,8.37
2018-10-18T23:45:27.604Z,7.93
2018-10-18T23:47:56.036Z,10.53
2018-10-18T23:50:24.478Z,15.17
2018-10-18T23:52:52.961Z,15.77
2018-10-18T23:55:21.411Z,15.57
2018-10-18T23:57:49.847Z,16.77
